sensor_id;sensor_type;location;lat;lon;timestamp;pressure;altitude;pressure_sealevel;temperature;humidity
11710;BME280;5911;51.036;6.972;2023-03-13T00:01:14;99729.75;;;10.80;100.00
11710;BME280;5911;51.036;6.972;2023-03-13T00:03:42;99719.88;;;10.82;100.00
11710;BME280;5911;51.036;6.972;2023-03-13T00:06:11;99722.50;;;10.82;100.00
11710;BME280;5911;51.036;6.972;2023-03-13T00:08:40;99713.63;;;10.83;100.00
11710;BME280;5911;51.036;6.972;2023-03-13T00:11:10;99707.38;;;10.84;100.00
11710;BME280;5911;51.036;6.972;2023-03-13T00:13:38;99698.63;;;10.83;100.00
11710;BME280;5911;51.036;6.972;2023-03-13T00:16:08;99685.25;;;10.85;100.00
11710;BME280;5911;51.036;6.972;2023-03-13T00:18:36;99681.97;;;10.83;100.00
11710;BME280;5911;51.036;6.972;2023-03-13T00:21:06;99636.50;;;10.71;100.00
11710;BME280;5911;51.036;6.972;2023-03-13T00:23:37;99651.59;;;10.79;100.00
11710;BME280;5911;51.036;6.972;2023-03-13T00:26:07;99656.91;;;10.87;100.00
11710;BME280;5911;51.036;6.972;2023-03-13T00:28:37;99654.28;;;10.87;100.00
11710;BME280;5911;51.036;6.972;2023-03-13T00:31:08;99627.22;;;10.85;100.00
11710;BME280;5911;51.036;6.972;2023-03-13T00:33:38;99630.91;;;10.92;100.00
11710;BME280;5911;51.036;6.972;2023-03-13T00:36:07;99626.03;;;10.97;100.00
11710;BME280;5911;51.036;6.972;2023-03-13T00:38:37;99618.41;;;10.94;100.00
11710;BME280;5911;51.036;6.972;2023-03-13T00:41:10;99620.97;;;11.04;100.00
11710;BME280;5911;51.036;6.972;2023-03-13T00:43:39;99618.41;;;10.94;100.00
11710;BME280;5911;51.036;6.972;2023-03-13T00:46:08;99627.59;;;11.08;100.00
11710;BME280;5911;51.036;6.972;2023-03-13T00:48:37;99608.13;;;11.09;100.00
11710;BME280;5911;51.036;6.972;2023-03-13T00:51:06;99605.50;;;11.09;100.00
11710;BME280;5911;51.036;6.972;2023-03-13T00:53:34;99600.38;;;11.07;100.00
11710;BME280;5911;51.036;6.972;2023-03-13T00:56:05;99595.78;;;11.09;100.00
11710;BME280;5911;51.036;6.972;2023-03-13T00:58:34;99597.72;;;11.07;100.00
11710;BME280;5911;51.036;6.972;2023-03-13T01:01:07;99596.75;;;11.08;100.00
11710;BME280;5911;51.036;6.972;2023-03-13T01:03:36;99592.16;;;11.10;100.00
11710;BME280;5911;51.036;6.972;2023-03-13T01:06:06;99598.94;;;11.13;100.00
11710;BME280;5911;51.036;6.972;2023-03-13T01:08:35;99590.88;;;11.14;100.00
11710;BME280;5911;51.036;6.972;2023-03-13T01:11:05;99587.56;;;11.12;100.00
11710;BME280;5911;51.036;6.972;2023-03-13T01:13:34;99574.50;;;11.11;100.00
11710;BME280;5911;51.036;6.972;2023-03-13T01:16:03;99561.38;;;11.01;100.00
11710;BME280;5911;51.036;6.972;2023-03-13T01:18:32;99563.28;;;11.09;100.00
11710;BME280;5911;51.036;6.972;2023-03-13T01:21:01;99560.81;;;11.15;100.00
11710;BME280;5911;51.036;6.972;2023-03-13T01:23:29;99556.56;;;11.14;100.00
11710;BME280;5911;51.036;6.972;2023-03-13T01:25:57;99560.81;;;11.15;100.00
11710;BME280;5911;51.036;6.972;2023-03-13T01:28:26;99540.34;;;11.09;100.00
11710;BME280;5911;51.036;6.972;2023-03-13T01:30:54;99558.56;;;11.20;100.00
11710;BME280;5911;51.036;6.972;2023-03-13T01:33:22;99542.41;;;11.23;100.00
11710;BME280;5911;51.036;6.972;2023-03-13T01:35:49;99538.78;;;11.24;100.00
11710;BME280;5911;51.036;6.972;2023-03-13T01:38:17;99533.22;;;11.27;100.00
11710;BME280;5911;51.036;6.972;2023-03-13T01:40:47;99538.50;;;11.27;100.00
11710;BME280;5911;51.036;6.972;2023-03-13T01:43:17;99533.88;;;11.30;100.00
11710;BME280;5911;51.036;6.972;2023-03-13T01:46:09;99525.13;;;11.29;100.00
11710;BME280;5911;51.036;6.972;2023-03-13T01:48:57;99519.72;;;11.39;100.00
11710;BME280;5911;51.036;6.972;2023-03-13T01:51:32;99516.13;;;11.40;100.00
11710;BME280;5911;51.036;6.972;2023-03-13T01:54:04;99509.53;;;11.44;100.00
11710;BME280;5911;51.036;6.972;2023-03-13T01:56:36;99492.72;;;11.45;100.00
11710;BME280;5911;51.036;6.972;2023-03-13T01:59:08;99485.25;;;11.40;100.00
11710;BME280;5911;51.036;6.972;2023-03-13T02:01:40;99486.41;;;11.46;100.00
11710;BME280;5911;51.036;6.972;2023-03-13T02:04:08;99468.28;;;11.43;100.00
11710;BME280;5911;51.036;6.972;2023-03-13T02:06:42;99459.38;;;11.44;100.00
11710;BME280;5911;51.036;6.972;2023-03-13T02:09:14;99453.78;;;11.55;100.00
11710;BME280;5911;51.036;6.972;2023-03-13T02:11:47;99461.41;;;11.58;100.00
11710;BME280;5911;51.036;6.972;2023-03-13T02:14:18;99446.22;;;11.60;100.00
11710;BME280;5911;51.036;6.972;2023-03-13T02:16:49;99437.13;;;11.62;100.00
11710;BME280;5911;51.036;6.972;2023-03-13T02:19:23;99433.03;;;11.68;100.00
11710;BME280;5911;51.036;6.972;2023-03-13T02:21:58;99422.63;;;11.67;100.00
11710;BME280;5911;51.036;6.972;2023-03-13T02:24:33;99418.81;;;11.69;100.00
11710;BME280;5911;51.036;6.972;2023-03-13T02:27:06;99419.81;;;11.68;100.00
11710;BME280;5911;51.036;6.972;2023-03-13T02:29:37;99413.53;;;11.69;100.00
11710;BME280;5911;51.036;6.972;2023-03-13T02:32:06;99409.91;;;11.70;100.00
11710;BME280;5911;51.036;6.972;2023-03-13T02:34:35;99402.81;;;11.71;100.00
11710;BME280;5911;51.036;6.972;2023-03-13T02:37:06;99405.94;;;11.66;100.00
11710;BME280;5911;51.036;6.972;2023-03-13T02:39:38;99389.22;;;11.49;100.00
11710;BME280;5911;51.036;6.972;2023-03-13T02:42:09;99403.78;;;11.61;100.00
11710;BME280;5911;51.036;6.972;2023-03-13T02:44:41;99403.78;;;11.61;100.00
11710;BME280;5911;51.036;6.972;2023-03-13T02:47:17;99410.38;;;11.57;100.00
11710;BME280;5911;51.036;6.972;2023-03-13T02:49:45;99407.22;;;11.54;100.00
11710;BME280;5911;51.036;6.972;2023-03-13T02:52:16;99394.81;;;11.46;100.00
11710;BME280;5911;51.036;6.972;2023-03-13T02:54:46;99403.94;;;11.52;100.00
11710;BME280;5911;51.036;6.972;2023-03-13T02:57:20;99403.25;;;11.50;100.00
11710;BME280;5911;51.036;6.972;2023-03-13T02:59:48;99394.66;;;11.48;100.00
11710;BME280;5911;51.036;6.972;2023-03-13T03:02:15;99397.31;;;11.48;100.00
11710;BME280;5911;51.036;6.972;2023-03-13T03:04:43;99383.63;;;11.44;100.00
11710;BME280;5911;51.036;6.972;2023-03-13T03:07:11;99370.41;;;11.44;100.00
11710;BME280;5911;51.036;6.972;2023-03-13T03:09:39;99374.19;;;11.42;100.00
11710;BME280;5911;51.036;6.972;2023-03-13T03:12:11;99364.31;;;11.44;100.00
11710;BME280;5911;51.036;6.972;2023-03-13T03:14:41;99354.06;;;11.41;100.00
11710;BME280;5911;51.036;6.972;2023-03-13T03:17:09;99356.03;;;11.39;100.00
11710;BME280;5911;51.036;6.972;2023-03-13T03:19:37;99354.91;;;11.41;100.00
11710;BME280;5911;51.036;6.972;2023-03-13T03:22:07;99344.16;;;11.43;100.00
11710;BME280;5911;51.036;6.972;2023-03-13T03:24:35;99341.03;;;11.47;100.00
11710;BME280;5911;51.036;6.972;2023-03-13T03:27:03;99347.13;;;11.48;100.00
11710;BME280;5911;51.036;6.972;2023-03-13T03:29:40;99347.97;;;11.48;100.00
11710;BME280;5911;51.036;6.972;2023-03-13T03:32:08;99355.41;;;11.53;100.00
11710;BME280;5911;51.036;6.972;2023-03-13T03:34:36;99353.28;;;11.56;100.00
11710;BME280;5911;51.036;6.972;2023-03-13T03:37:05;99365.66;;;11.56;100.00
11710;BME280;5911;51.036;6.972;2023-03-13T03:39:33;99347.47;;;11.53;100.00
11710;BME280;5911;51.036;6.972;2023-03-13T03:42:04;99351.63;;;11.55;100.00
11710;BME280;5911;51.036;6.972;2023-03-13T03:44:32;99331.31;;;11.56;100.00
11710;BME280;5911;51.036;6.972;2023-03-13T03:47:01;99339.25;;;11.56;100.00
11710;BME280;5911;51.036;6.972;2023-03-13T03:49:33;99327.69;;;11.57;100.00
11710;BME280;5911;51.036;6.972;2023-03-13T03:52:01;99324.06;;;11.58;100.00
11710;BME280;5911;51.036;6.972;2023-03-13T03:54:34;99322.09;;;11.60;100.00
11710;BME280;5911;51.036;6.972;2023-03-13T03:57:03;99329.66;;;11.63;100.00
11710;BME280;5911;51.036;6.972;2023-03-13T03:59:31;99326.69;;;11.66;100.00
11710;BME280;5911;51.036;6.972;2023-03-13T04:02:06;99325.53;;;11.69;100.00
11710;BME280;5911;51.036;6.972;2023-03-13T04:04:35;99314.50;;;11.73;100.00
11710;BME280;5911;51.036;6.972;2023-03-13T04:07:13;99316.31;;;11.73;100.00
11710;BME280;5911;51.036;6.972;2023-03-13T04:09:42;99316.84;;;11.76;100.00
11710;BME280;5911;51.036;6.972;2023-03-13T04:12:18;99324.41;;;11.79;100.00
11710;BME280;5911;51.036;6.972;2023-03-13T04:14:49;99321.44;;;11.82;100.00
11710;BME280;5911;51.036;6.972;2023-03-13T04:17:18;99311.88;;;11.89;100.00
11710;BME280;5911;51.036;6.972;2023-03-13T04:19:49;99307.28;;;11.91;100.00
11710;BME280;5911;51.036;6.972;2023-03-13T04:22:17;99309.56;;;11.94;100.00
11710;BME280;5911;51.036;6.972;2023-03-13T04:24:49;99287.13;;;11.90;100.00
11710;BME280;5911;51.036;6.972;2023-03-13T04:27:18;99283.31;;;12.01;100.00
11710;BME280;5911;51.036;6.972;2023-03-13T04:29:47;99282.44;;;12.09;100.00
11710;BME280;5911;51.036;6.972;2023-03-13T04:32:43;99288.06;;;12.14;100.00
11710;BME280;5911;51.036;6.972;2023-03-13T04:35:36;99288.06;;;12.14;100.00
11710;BME280;5911;51.036;6.972;2023-03-13T04:38:19;99297.47;;;12.16;100.00
11710;BME280;5911;51.036;6.972;2023-03-13T04:41:10;99277.66;;;12.20;100.00
11710;BME280;5911;51.036;6.972;2023-03-13T04:43:50;99288.56;;;12.17;100.00
11710;BME280;5911;51.036;6.972;2023-03-13T04:46:38;99280.47;;;12.19;100.00
11710;BME280;5911;51.036;6.972;2023-03-13T04:49:20;99285.44;;;12.22;100.00
11710;BME280;5911;51.036;6.972;2023-03-13T04:51:51;99283.56;;;12.22;100.00
11710;BME280;5911;51.036;6.972;2023-03-13T04:54:34;99281.13;;;12.21;100.00
11710;BME280;5911;51.036;6.972;2023-03-13T04:57:09;99272.00;;;12.23;100.00
11710;BME280;5911;51.036;6.972;2023-03-13T04:59:54;99272.00;;;12.23;100.00
11710;BME280;5911;51.036;6.972;2023-03-13T05:02:37;99272.50;;;12.27;100.00
11710;BME280;5911;51.036;6.972;2023-03-13T05:05:39;99267.53;;;12.24;100.00
11710;BME280;5911;51.036;6.972;2023-03-13T05:08:36;99275.31;;;12.25;100.00
11710;BME280;5911;51.036;6.972;2023-03-13T05:11:18;99260.81;;;12.21;100.00
11710;BME280;5911;51.036;6.972;2023-03-13T05:14:00;99263.75;;;12.26;100.00
11710;BME280;5911;51.036;6.972;2023-03-13T05:17:03;99256.31;;;12.30;100.00
11710;BME280;5911;51.036;6.972;2023-03-13T05:19:56;99251.50;;;12.33;100.00
11710;BME280;5911;51.036;6.972;2023-03-13T05:22:41;99262.22;;;12.40;100.00
11710;BME280;5911;51.036;6.972;2023-03-13T05:25:15;99250.97;;;12.46;100.00
11710;BME280;5911;51.036;6.972;2023-03-13T05:28:03;99246.34;;;12.48;100.00
11710;BME280;5911;51.036;6.972;2023-03-13T05:30:53;99252.63;;;12.47;100.00
11710;BME280;5911;51.036;6.972;2023-03-13T05:33:30;99244.03;;;12.45;100.00
11710;BME280;5911;51.036;6.972;2023-03-13T05:36:12;99249.63;;;12.50;100.00
11710;BME280;5911;51.036;6.972;2023-03-13T05:39:10;99251.91;;;12.53;100.00
11710;BME280;5911;51.036;6.972;2023-03-13T05:41:49;99251.25;;;12.59;100.00
11710;BME280;5911;51.036;6.972;2023-03-13T05:44:53;99229.59;;;12.56;100.00
11710;BME280;5911;51.036;6.972;2023-03-13T05:47:43;99230.06;;;12.59;100.00
11710;BME280;5911;51.036;6.972;2023-03-13T05:50:30;99216.50;;;12.62;100.00
11710;BME280;5911;51.036;6.972;2023-03-13T05:53:18;99213.88;;;12.62;100.00
11710;BME280;5911;51.036;6.972;2023-03-13T05:55:57;99219.16;;;12.62;100.00
11710;BME280;5911;51.036;6.972;2023-03-13T05:58:54;99230.75;;;12.61;100.00
11710;BME280;5911;51.036;6.972;2023-03-13T06:01:50;99242.66;;;12.57;100.00
11710;BME280;5911;51.036;6.972;2023-03-13T06:04:38;99246.28;;;12.64;100.00
11710;BME280;5911;51.036;6.972;2023-03-13T06:07:07;99244.28;;;12.58;100.00
11710;BME280;5911;51.036;6.972;2023-03-13T06:09:34;99229.75;;;12.62;100.00
11710;BME280;5911;51.036;6.972;2023-03-13T06:12:04;99233.16;;;12.71;100.00
11710;BME280;5911;51.036;6.972;2023-03-13T06:14:32;99249.03;;;12.71;100.00
11710;BME280;5911;51.036;6.972;2023-03-13T06:17:15;99257.28;;;12.76;100.00
11710;BME280;5911;51.036;6.972;2023-03-13T06:19:43;99250.34;;;12.75;100.00
11710;BME280;5911;51.036;6.972;2023-03-13T06:22:10;99256.13;;;12.79;100.00
11710;BME280;5911;51.036;6.972;2023-03-13T06:24:38;99263.06;;;12.80;100.00
11710;BME280;5911;51.036;6.972;2023-03-13T06:27:07;99260.75;;;12.77;100.00
11710;BME280;5911;51.036;6.972;2023-03-13T06:29:35;99267.69;;;12.78;100.00
11710;BME280;5911;51.036;6.972;2023-03-13T06:32:04;99260.41;;;12.80;100.00
11710;BME280;5911;51.036;6.972;2023-03-13T06:34:32;99270.00;;;12.81;100.00
11710;BME280;5911;51.036;6.972;2023-03-13T06:37:00;99260.03;;;12.91;100.00
11710;BME280;5911;51.036;6.972;2023-03-13T06:39:27;99261.69;;;12.92;100.00
11710;BME280;5911;51.036;6.972;2023-03-13T06:41:55;99266.47;;;12.88;100.00
11710;BME280;5911;51.036;6.972;2023-03-13T06:44:24;99253.31;;;12.80;100.00
11710;BME280;5911;51.036;6.972;2023-03-13T06:46:52;99264.34;;;12.84;100.00
11710;BME280;5911;51.036;6.972;2023-03-13T06:49:20;99273.66;;;12.80;100.00
11710;BME280;5911;51.036;6.972;2023-03-13T06:51:48;99283.75;;;12.76;100.00
11710;BME280;5911;51.036;6.972;2023-03-13T06:54:16;99291.03;;;12.74;100.00
11710;BME280;5911;51.036;6.972;2023-03-13T06:56:44;99288.06;;;12.69;100.00
11710;BME280;5911;51.036;6.972;2023-03-13T06:59:11;99285.63;;;12.67;100.00
11710;BME280;5911;51.036;6.972;2023-03-13T07:01:40;99291.53;;;12.69;100.00
11710;BME280;5911;51.036;6.972;2023-03-13T07:04:10;99279.50;;;12.67;100.00
11710;BME280;5911;51.036;6.972;2023-03-13T07:06:39;99281.59;;;12.72;100.00
11710;BME280;5911;51.036;6.972;2023-03-13T07:09:07;99294.81;;;12.80;100.00
11710;BME280;5911;51.036;6.972;2023-03-13T07:11:35;99289.66;;;12.86;100.00
11710;BME280;5911;51.036;6.972;2023-03-13T07:14:03;99246.56;;;12.69;100.00
11710;BME280;5911;51.036;6.972;2023-03-13T07:16:44;99291.38;;;13.02;100.00
11710;BME280;5911;51.036;6.972;2023-03-13T07:19:12;99277.69;;;12.98;100.00
11710;BME280;5911;51.036;6.972;2023-03-13T07:21:41;99295.00;;;13.09;100.00
11710;BME280;5911;51.036;6.972;2023-03-13T07:24:09;99304.44;;;13.12;100.00
11710;BME280;5911;51.036;6.972;2023-03-13T07:26:37;99297.63;;;13.17;100.00
11710;BME280;5911;51.036;6.972;2023-03-13T07:29:06;99286.00;;;13.26;100.00
11710;BME280;5911;51.036;6.972;2023-03-13T07:31:34;99305.78;;;13.38;100.00
11710;BME280;5911;51.036;6.972;2023-03-13T07:34:03;99302.63;;;13.43;100.00
11710;BME280;5911;51.036;6.972;2023-03-13T07:36:31;99333.69;;;13.49;100.00
11710;BME280;5911;51.036;6.972;2023-03-13T07:39:00;99300.66;;;13.60;100.00
11710;BME280;5911;51.036;6.972;2023-03-13T07:41:28;99280.06;;;13.70;100.00
11710;BME280;5911;51.036;6.972;2023-03-13T07:43:56;99279.06;;;13.71;100.00
11710;BME280;5911;51.036;6.972;2023-03-13T07:46:24;99253.22;;;13.73;100.00
11710;BME280;5911;51.036;6.972;2023-03-13T07:48:52;99267.63;;;13.70;100.00
11710;BME280;5911;51.036;6.972;2023-03-13T07:51:23;99267.03;;;13.83;100.00
11710;BME280;5911;51.036;6.972;2023-03-13T07:54:08;99254.41;;;13.85;100.00
11710;BME280;5911;51.036;6.972;2023-03-13T07:56:38;99261.38;;;13.86;100.00
11710;BME280;5911;51.036;6.972;2023-03-13T07:59:06;99245.81;;;13.83;100.00
11710;BME280;5911;51.036;6.972;2023-03-13T08:01:34;99245.00;;;13.83;100.00
11710;BME280;5911;51.036;6.972;2023-03-13T08:04:02;99247.81;;;13.81;100.00
11710;BME280;5911;51.036;6.972;2023-03-13T08:06:33;99244.44;;;13.72;100.00
11710;BME280;5911;51.036;6.972;2023-03-13T08:09:02;99241.16;;;13.85;100.00
11710;BME280;5911;51.036;6.972;2023-03-13T08:11:30;99237.22;;;13.81;100.00
11710;BME280;5911;51.036;6.972;2023-03-13T08:13:58;99244.88;;;13.76;100.00
11710;BME280;5911;51.036;6.972;2023-03-13T08:16:27;99242.88;;;13.78;100.00
11710;BME280;5911;51.036;6.972;2023-03-13T08:18:57;99234.22;;;13.84;100.00
11710;BME280;5911;51.036;6.972;2023-03-13T08:21:26;99239.50;;;13.84;100.00
11710;BME280;5911;51.036;6.972;2023-03-13T08:23:57;99236.22;;;13.82;100.00
11710;BME280;5911;51.036;6.972;2023-03-13T08:26:26;99253.13;;;13.81;100.00
11710;BME280;5911;51.036;6.972;2023-03-13T08:28:56;99231.56;;;13.84;100.00
11710;BME280;5911;51.036;6.972;2023-03-13T08:31:25;99235.38;;;13.82;100.00
11710;BME280;5911;51.036;6.972;2023-03-13T08:33:53;99237.22;;;13.81;100.00
11710;BME280;5911;51.036;6.972;2023-03-13T08:36:23;99233.91;;;13.79;100.00
11710;BME280;5911;51.036;6.972;2023-03-13T08:38:52;99236.09;;;13.76;100.00
11710;BME280;5911;51.036;6.972;2023-03-13T08:41:23;99238.50;;;13.85;100.00
11710;BME280;5911;51.036;6.972;2023-03-13T08:43:52;99238.50;;;13.85;100.00
11710;BME280;5911;51.036;6.972;2023-03-13T08:46:19;99236.22;;;13.82;100.00
11710;BME280;5911;51.036;6.972;2023-03-13T08:48:48;99244.28;;;13.89;100.00
11710;BME280;5911;51.036;6.972;2023-03-13T08:51:19;99246.94;;;13.89;100.00
11710;BME280;5911;51.036;6.972;2023-03-13T08:53:48;99234.50;;;13.89;100.00
11710;BME280;5911;51.036;6.972;2023-03-13T08:56:17;99240.44;;;14.06;100.00
11710;BME280;5911;51.036;6.972;2023-03-13T08:58:49;99243.03;;;14.14;100.00
11710;BME280;5911;51.036;6.972;2023-03-13T09:01:18;99246.50;;;14.15;100.00
11710;BME280;5911;51.036;6.972;2023-03-13T09:03:46;99231.47;;;14.07;100.00
11710;BME280;5911;51.036;6.972;2023-03-13T09:06:15;99241.25;;;14.06;100.00
11710;BME280;5911;51.036;6.972;2023-03-13T09:08:43;99235.97;;;14.06;100.00
11710;BME280;5911;51.036;6.972;2023-03-13T09:11:12;99237.59;;;14.07;100.00
11710;BME280;5911;51.036;6.972;2023-03-13T09:13:42;99229.13;;;14.12;100.00
11710;BME280;5911;51.036;6.972;2023-03-13T09:16:13;99220.34;;;14.12;100.00
11710;BME280;5911;51.036;6.972;2023-03-13T09:18:42;99226.28;;;14.14;100.00
11710;BME280;5911;51.036;6.972;2023-03-13T09:21:12;99239.00;;;14.18;100.00
11710;BME280;5911;51.036;6.972;2023-03-13T09:23:40;99221.53;;;14.24;100.00
11710;BME280;5911;51.036;6.972;2023-03-13T09:26:09;99223.94;;;14.19;100.00
11710;BME280;5911;51.036;6.972;2023-03-13T09:28:37;99213.03;;;14.14;100.00
11710;BME280;5911;51.036;6.972;2023-03-13T09:31:05;99187.34;;;13.99;100.00
11710;BME280;5911;51.036;6.972;2023-03-13T09:33:35;99216.59;;;14.21;100.00
11710;BME280;5911;51.036;6.972;2023-03-13T09:36:03;99205.44;;;14.25;100.00
11710;BME280;5911;51.036;6.972;2023-03-13T09:38:31;99206.91;;;14.28;100.00
11710;BME280;5911;51.036;6.972;2023-03-13T09:41:03;99205.78;;;14.37;100.00
11710;BME280;5911;51.036;6.972;2023-03-13T09:43:39;99196.28;;;14.28;100.00
11710;BME280;5911;51.036;6.972;2023-03-13T09:46:13;99206.34;;;14.32;100.00
11710;BME280;5911;51.036;6.972;2023-03-13T09:48:46;99200.16;;;14.40;100.00
11710;BME280;5911;51.036;6.972;2023-03-13T09:51:18;99210.75;;;14.40;100.00
11710;BME280;5911;51.036;6.972;2023-03-13T09:53:51;99201.06;;;14.47;100.00
11710;BME280;5911;51.036;6.972;2023-03-13T09:56:23;99190.63;;;14.60;100.00
11710;BME280;5911;51.036;6.972;2023-03-13T09:58:53;99196.81;;;14.67;100.00
11710;BME280;5911;51.036;6.972;2023-03-13T10:01:25;99198.44;;;14.68;100.00
11710;BME280;5911;51.036;6.972;2023-03-13T10:04:03;99202.50;;;14.64;100.00
11710;BME280;5911;51.036;6.972;2023-03-13T10:06:37;99197.75;;;14.60;100.00
11710;BME280;5911;51.036;6.972;2023-03-13T10:09:16;99199.19;;;14.77;100.00
11710;BME280;5911;51.036;6.972;2023-03-13T10:11:52;99191.84;;;14.79;100.00
11710;BME280;5911;51.036;6.972;2023-03-13T10:14:29;99193.94;;;14.84;100.00
11710;BME280;5911;51.036;6.972;2023-03-13T10:17:02;99192.56;;;14.88;100.00
11710;BME280;5911;51.036;6.972;2023-03-13T10:19:38;99164.44;;;14.93;100.00
11710;BME280;5911;51.036;6.972;2023-03-13T10:22:11;99174.09;;;15.01;100.00
11710;BME280;5911;51.036;6.972;2023-03-13T10:24:45;99166.66;;;15.11;100.00
11710;BME280;5911;51.036;6.972;2023-03-13T10:27:14;99161.00;;;15.21;100.00
11710;BME280;5911;51.036;6.972;2023-03-13T10:29:42;99167.25;;;15.34;100.00
11710;BME280;5911;51.036;6.972;2023-03-13T10:32:12;99152.59;;;15.38;100.00
11710;BME280;5911;51.036;6.972;2023-03-13T10:34:48;99150.97;;;15.44;100.00
11710;BME280;5911;51.036;6.972;2023-03-13T10:37:21;99148.72;;;15.41;100.00
11710;BME280;5911;51.036;6.972;2023-03-13T10:39:50;99152.97;;;15.35;100.00
11710;BME280;5911;51.036;6.972;2023-03-13T10:42:26;99138.03;;;15.34;100.00
11710;BME280;5911;51.036;6.972;2023-03-13T10:44:55;99132.97;;;15.39;100.00
11710;BME280;5911;51.036;6.972;2023-03-13T10:47:24;99146.06;;;15.41;100.00
11710;BME280;5911;51.036;6.972;2023-03-13T10:49:56;99127.28;;;15.42;100.00
11710;BME280;5911;51.036;6.972;2023-03-13T10:52:31;99122.56;;;15.44;100.00
11710;BME280;5911;51.036;6.972;2023-03-13T10:55:00;99138.50;;;15.66;100.00
11710;BME280;5911;51.036;6.972;2023-03-13T10:57:30;99163.91;;;15.75;100.00
11710;BME280;5911;51.036;6.972;2023-03-13T10:59:58;99130.06;;;15.90;100.00
11710;BME280;5911;51.036;6.972;2023-03-13T11:02:33;99113.22;;;16.17;100.00
11710;BME280;5911;51.036;6.972;2023-03-13T11:05:30;99118.56;;;16.72;100.00
11710;BME280;5911;51.036;6.972;2023-03-13T11:08:10;99086.31;;;16.47;100.00
11710;BME280;5911;51.036;6.972;2023-03-13T11:10:50;99088.13;;;16.40;100.00
11710;BME280;5911;51.036;6.972;2023-03-13T11:13:28;99112.22;;;16.25;100.00
11710;BME280;5911;51.036;6.972;2023-03-13T11:16:16;99081.50;;;16.16;100.00
11710;BME280;5911;51.036;6.972;2023-03-13T11:19:08;99099.50;;;16.14;100.00
11710;BME280;5911;51.036;6.972;2023-03-13T11:21:48;99072.91;;;16.21;100.00
11710;BME280;5911;51.036;6.972;2023-03-13T11:24:27;99063.69;;;16.16;100.00
11710;BME280;5911;51.036;6.972;2023-03-13T11:27:03;99076.97;;;16.10;100.00
11710;BME280;5911;51.036;6.972;2023-03-13T11:29:41;99039.72;;;16.03;100.00
11710;BME280;5911;51.036;6.972;2023-03-13T11:32:21;99051.19;;;16.10;100.00
11710;BME280;5911;51.036;6.972;2023-03-13T11:34:51;99088.47;;;16.17;100.00
11710;BME280;5911;51.036;6.972;2023-03-13T11:37:23;99042.00;;;16.19;100.00
11710;BME280;5911;51.036;6.972;2023-03-13T11:39:59;99053.25;;;16.15;100.00
11710;BME280;5911;51.036;6.972;2023-03-13T11:42:45;99026.28;;;16.38;100.00
11710;BME280;5911;51.036;6.972;2023-03-13T11:45:27;99021.78;;;16.32;100.00
11710;BME280;5911;51.036;6.972;2023-03-13T11:48:02;99022.59;;;16.39;100.00
11710;BME280;5911;51.036;6.972;2023-03-13T11:50:38;99009.09;;;16.34;100.00
11710;BME280;5911;51.036;6.972;2023-03-13T11:53:26;99020.97;;;16.38;100.00
11710;BME280;5911;51.036;6.972;2023-03-13T11:56:07;98999.06;;;16.42;100.00
11710;BME280;5911;51.036;6.972;2023-03-13T11:58:48;98992.94;;;17.21;96.49
11710;BME280;5911;51.036;6.972;2023-03-13T12:01:23;98996.41;;;17.28;93.78
11710;BME280;5911;51.036;6.972;2023-03-13T12:04:14;98964.31;;;16.77;96.04
11710;BME280;5911;51.036;6.972;2023-03-13T12:06:50;98981.72;;;16.73;97.69
11710;BME280;5911;51.036;6.972;2023-03-13T12:09:25;98980.91;;;16.92;96.06
11710;BME280;5911;51.036;6.972;2023-03-13T12:11:58;98970.66;;;16.69;97.20
11710;BME280;5911;51.036;6.972;2023-03-13T12:14:31;98986.00;;;16.61;95.20
11710;BME280;5911;51.036;6.972;2023-03-13T12:17:02;98971.66;;;16.55;96.16
11710;BME280;5911;51.036;6.972;2023-03-13T12:19:36;98981.25;;;16.43;96.46
11710;BME280;5911;51.036;6.972;2023-03-13T12:22:13;98969.38;;;16.39;97.38
11710;BME280;5911;51.036;6.972;2023-03-13T12:24:50;99034.06;;;16.39;97.20
11710;BME280;5911;51.036;6.972;2023-03-13T12:27:25;98982.28;;;16.42;95.79
11710;BME280;5911;51.036;6.972;2023-03-13T12:30:00;98962.84;;;16.61;97.38
11710;BME280;5911;51.036;6.972;2023-03-13T12:32:51;98944.03;;;16.96;94.35
11710;BME280;5911;51.036;6.972;2023-03-13T12:35:25;98940.19;;;17.49;91.29
11710;BME280;5911;51.036;6.972;2023-03-13T12:38:01;98945.88;;;17.59;88.99
11710;BME280;5911;51.036;6.972;2023-03-13T12:40:37;98949.69;;;17.26;90.56
11710;BME280;5911;51.036;6.972;2023-03-13T12:43:10;98946.66;;;17.09;88.87
11710;BME280;5911;51.036;6.972;2023-03-13T12:45:53;98946.44;;;17.04;88.77
11710;BME280;5911;51.036;6.972;2023-03-13T12:51:41;98910.34;;;17.14;88.32
11710;BME280;5911;51.036;6.972;2023-03-13T12:57:21;98921.84;;;17.02;89.21
11710;BME280;5911;51.036;6.972;2023-03-13T12:59:55;98917.59;;;16.87;90.38
11710;BME280;5911;51.036;6.972;2023-03-13T13:02:27;98898.75;;;16.76;90.99
11710;BME280;5911;51.036;6.972;2023-03-13T13:04:59;98900.00;;;16.73;91.69
11710;BME280;5911;51.036;6.972;2023-03-13T13:07:29;98886.69;;;16.73;92.55
11710;BME280;5911;51.036;6.972;2023-03-13T13:10:13;98898.75;;;16.69;91.97
11710;BME280;5911;51.036;6.972;2023-03-13T13:12:45;98910.63;;;16.60;91.17
11710;BME280;5911;51.036;6.972;2023-03-13T13:15:18;98903.84;;;16.51;90.69
11710;BME280;5911;51.036;6.972;2023-03-13T13:18:12;98894.03;;;16.58;91.35
11710;BME280;5911;51.036;6.972;2023-03-13T13:20:45;98898.53;;;16.51;92.41
11710;BME280;5911;51.036;6.972;2023-03-13T13:23:24;98880.94;;;16.37;94.30
11710;BME280;5911;51.036;6.972;2023-03-13T13:25:53;98867.63;;;16.37;95.23
11710;BME280;5911;51.036;6.972;2023-03-13T13:28:31;98905.09;;;16.29;95.46
11710;BME280;5911;51.036;6.972;2023-03-13T13:31:00;98882.38;;;16.33;93.58
11710;BME280;5911;51.036;6.972;2023-03-13T13:33:38;98860.88;;;16.28;94.60
11710;BME280;5911;51.036;6.972;2023-03-13T13:36:27;98870.09;;;16.18;96.05
11710;BME280;5911;51.036;6.972;2023-03-13T13:38:56;98869.69;;;16.15;98.05
11710;BME280;5911;51.036;6.972;2023-03-13T13:41:33;98859.66;;;16.17;98.53